Toledo, OH

7:30 PM EDT on September 20, 2014 (GMT -0400)
APRSWXNET Toledo OH US | Change Station
CLOSE
Current Station
Personal Weather Station
Location: Rossford, OH
Elevation: 616 ft
Nearby Weather Stations

Elev 616 ft 41.60 °N, 83.60 °W | Updated 27 minutes ago

Partly Cloudy
Partly Cloudy
78 °F
Feels Like 80 °F
N
2
Wind Variable Wind from South
Gusts 8.0 mph

Today
High -- | Low -- °F
--% Chance of Precip.
Yesterday
High -- | Low -- °F
Precip. -- in
7:19 AM 7:34 PM
Waning Crescent, 10% visible
Pressure 29.83 in
Visibility 10.0 miles
Clouds Clear
Heat Index 80 °F
Dew Point 63 °F
Humidity 60%
Rainfall 0.00 in
Snow Depth Not available.
UV 0 out of 12
Pollen 4.80 out of 12
Air Quality Not available.
Flu Activity Not available.
METAR KTDZ 202253Z AUTO 21010KT 10SM CLR 25/14 A2984 RMK AO2 SLP101 T02500139 TSNO

More Conditions Fewer Conditions

Pressure 29.83 in
Visibility 10.0 miles
Clouds Clear
Heat Index 80 °F
Dew Point 63 °F
Humidity 60%
Rainfall 0.00 in
Snow Depth Not available.
UV 0 out of 12
Pollen 4.80 out of 12
Air Quality Not available.
Flu Activity Not available.
METAR KTDZ 202253Z AUTO 21010KT 10SM CLR 25/14 A2984 RMK AO2 SLP101 T02500139 TSNO

More Conditions Fewer Conditions

10-Day Weather Forecast

Almanac

Astronomy

Sep. 20, 2014 Rise Set
Actual Time 7:19 AM EDT 7:34 PM EDT
Civil Twilight 6:51 AM EDT 8:02 PM EDT
Nautical Twilight 6:19 AM EDT 8:35 PM EDT
Astronomical Twilight 5:45 AM EDT 9:08 PM EDT
Moon 3:55 AM EDT 5:39 PM EDT
Length of Visible Light 13h 10m
Length of Day
12h 15m
Tomorrow will be 2m 46s shorter.
Waning Crescent, 10% of the Moon is Illuminated
Today
Waning Crescent
Sep 24
New
Oct 1
First Quarter
Oct 8
Full
Oct 15
Last Quarter

Today's Extremes

State Highs State Lows

Community

WunderPhotos

Upload Photos

1,754,979 photos uploaded!

WunderBlogs® & News

Nearby

Snow Depth

Station Depth Elevation
No new snow has been reported.

Earthquake Activity

City Distance Mag. Time & Date
No recent earthquake activity has been reported nearby.
Minimum magnitude displayed is 2.5.

Coastal Water Temperatures

Place Temperature
Marblehead, OH 66.0 °F

Nearby Weather Stations